Latest Weather Observations for Lucas Heights

IDN60801

Issued at 8:05 am EDT Saturday 29 November 2014 (issued every 30 minutes, with the page automatically refreshed every 10 minutes)

About weather observations | Map of weather stations | Latest weather observations for NSW | Other Formats
Station Details ID: 066023 Name: LUCAS HEIGHTS AWS Lat: -34.05 Lon: 150.98 Height: 140.0 m
Data from the previous 72 hours. | See also: Recent months for locations in New South Wales
Date/Time
EDT
Temp
°C
App
Temp
°C
Dew
Point
Rel
Hum
%
Delta-T
°C
Wind Press
QNH
hPa
Press
MSL
hPa
Rain
since 9 am
mm
Dir
 
Spd
km/h
Gust
km/h
Spd
kts
Gust
kts
29/07:45am 18.4 19.1 15.7 84 1.6 W 6 9 3 5 1019.8 - 0.0
29/07:30am 16.7 17.0 14.9 89 1.0 WSW 7 13 4 7 1019.8 - 0.0
29/07:15am 15.3 14.8 13.7 90 0.9 WSW 9 11 5 6 1019.6 - 0.0
29/07:00am 14.1 13.6 12.7 91 0.8 WSW 7 9 4 5 1019.4 - 0.0
29/06:45am 13.2 12.6 11.7 91 0.8 WSW 6 9 3 5 1019.4 - 0.0
29/06:30am 12.9 12.0 11.4 91 0.8 WSW 7 9 4 5 1019.3 - 0.0
29/06:15am 12.9 12.0 11.3 90 0.9 W 7 9 4 5 1019.3 - 0.0
29/06:00am 12.8 11.5 11.2 90 0.8 W 9 11 5 6 1019.4 - 0.0
29/05:45am 12.6 11.2 11.0 90 0.8 WSW 9 11 5 6 1019.4 - 0.0
29/05:30am 12.4 11.3 10.8 90 0.8 WSW 7 9 4 5 1019.2 - 0.0
29/05:15am 12.6 11.2 11.0 90 0.8 WSW 9 9 5 5 1019.2 - 0.0
29/05:00am 12.8 11.8 11.1 89 0.9 WSW 7 9 4 5 1019.2 - 0.0
29/04:45am 12.8 11.5 11.2 90 0.8 W 9 13 5 7 1019.1 - 0.0
29/04:30am 12.5 11.1 10.9 90 0.8 WSW 9 11 5 6 1019.1 - 0.0
29/04:15am 12.5 11.6 10.8 89 0.9 WSW 6 7 3 4 1019.1 - 0.0
29/04:00am 12.4 11.5 10.7 89 0.9 SW 6 7 3 4 1019.1 - 0.0
29/03:45am 12.6 12.1 10.8 89 0.9 WSW 4 7 2 4 1019.2 - 0.0
29/03:30am 12.6 11.7 10.7 88 1.0 W 6 7 3 4 1019.5 - 0.0
29/03:15am 12.7 11.7 10.9 89 0.9 W 7 9 4 5 1019.5 - 0.0
29/03:00am 12.8 12.0 10.9 88 1.0 W 6 9 3 5 1019.6 - 0.0
29/02:45am 13.0 12.2 11.0 88 1.1 WNW 6 7 3 4 1019.6 - 0.0
29/02:30am 13.1 12.1 11.1 88 1.1 WNW 7 9 4 5 1019.8 - 0.0
29/02:15am 13.2 12.4 11.1 87 1.1 WNW 6 7 3 4 1019.8 - 0.0
29/02:00am 13.5 12.6 11.3 86 1.2 NW 7 9 4 5 1020.1 - 0.0
29/01:45am 13.9 12.7 11.7 86 1.2 NW 9 11 5 6 1020.2 - 0.0
29/01:30am 13.6 12.7 11.3 86 1.2 NNW 7 9 4 5 1020.4 - 0.0
29/01:15am 13.7 13.3 11.1 84 1.4 N 4 6 2 3 1020.6 - 0.0
29/01:00am 14.1 13.8 11.6 85 1.3 NNE 4 6 2 3 1020.7 - 0.0
29/12:45am 14.2 13.6 11.7 85 1.3 NNE 6 9 3 5 1020.8 - 0.0
29/12:30am 14.2 13.3 11.5 84 1.5 NNE 7 9 4 5 1020.9 - 0.0
29/12:15am 14.3 13.6 11.5 83 1.5 NE 6 9 3 5 1021.0 - 0.0
29/12:00am 14.6 14.0 11.7 83 1.6 NE 6 9 3 5 1021.1 - 0.0
 
Date/Time
EDT
Temp
°C
App
Temp
°C
Dew
Point
Rel
Hum
%
Delta-T
°C
Wind Press
QNH
hPa
Press
MSL
hPa
Rain
since 9 am
mm
Dir
 
Spd
km/h
Gust
km/h
Spd
kts
Gust
kts
28/11:45pm 14.9 14.1 11.8 82 1.7 NNE 7 11 4 6 1021.1 - 0.0
28/11:30pm 15.1 14.3 11.8 81 1.8 NE 7 11 4 6 1021.2 - 0.0
28/11:15pm 15.4 14.3 11.8 79 2.0 NNE 9 9 5 5 1021.2 - 0.0
28/11:00pm 15.6 14.0 11.7 77 2.1 NNE 11 13 6 7 1021.2 - 0.0
28/10:45pm 16.2 14.4 12.1 76 2.3 NNE 13 15 7 8 1021.1 - 0.0
28/10:30pm 16.5 14.7 12.2 76 2.4 NNE 13 17 7 9 1021.1 - 0.0
28/10:15pm 16.6 14.9 12.3 76 2.4 NNE 13 19 7 10 1021.1 - 0.0
28/10:00pm 16.7 14.6 12.3 75 2.4 NNE 15 19 8 10 1021.1 - 0.0
28/09:45pm 16.6 14.8 12.1 75 2.5 NNE 13 17 7 9 1021.1 - 0.0
28/09:30pm 16.9 15.1 12.1 73 2.7 NNE 13 19 7 10 1021.0 - 0.0
28/09:15pm 17.2 15.4 12.2 72 2.8 NE 13 17 7 9 1020.7 - 0.0
28/09:00pm 17.4 15.3 12.3 72 2.8 NE 15 22 8 12 1020.6 - 0.0
28/08:45pm 17.6 15.1 12.2 70 3.0 NE 17 26 9 14 1020.5 - 0.0
28/08:30pm 17.7 15.1 12.1 69 3.1 NE 17 22 9 12 1020.5 - 0.0
28/08:15pm 17.9 15.4 12.2 69 3.2 NE 17 24 9 13 1020.5 - 0.0
28/08:00pm 18.2 15.7 12.2 68 3.3 NE 17 26 9 14 1020.4 - 0.0
28/07:45pm 18.6 16.1 12.3 67 3.5 NE 17 28 9 15 1020.4 - 0.0
28/07:30pm 19.1 16.3 12.5 65 3.7 ENE 19 26 10 14 1020.5 - 0.0
28/07:15pm 19.3 15.8 12.3 64 3.9 ENE 22 33 12 18 1020.4 - 0.0
28/07:00pm 19.7 16.6 12.3 62 4.2 ENE 20 28 11 15 1020.2 - 0.0
28/06:45pm 20.1 17.0 12.3 61 4.4 NE 20 30 11 16 1020.1 - 0.0
28/06:30pm 20.4 17.3 12.3 59 4.6 ENE 20 30 11 16 1020.0 - 0.0
28/06:15pm 20.6 17.5 12.3 59 4.7 ENE 20 30 11 16 1020.0 - 0.0
28/06:00pm 20.6 17.1 12.2 58 4.7 ENE 22 32 12 17 1019.9 - 0.0
28/05:45pm 21.0 17.6 12.5 58 4.8 ENE 22 32 12 17 1019.9 - 0.0
28/05:30pm 21.2 17.8 12.6 58 4.9 ENE 22 30 12 16 1020.0 - 0.0
28/05:15pm 21.1 18.3 12.5 58 4.9 ENE 19 30 10 16 1020.1 - 0.0
28/05:00pm 21.4 18.4 12.4 56 5.1 ENE 20 30 11 16 1020.2 - 0.0
28/04:45pm 21.5 18.6 12.2 55 5.3 NE 19 30 10 16 1020.2 - 0.0
28/04:30pm 21.7 18.6 12.2 54 5.4 ENE 20 33 11 18 1020.3 - 0.0
28/04:15pm 21.6 18.7 12.2 55 5.3 ENE 19 30 10 16 1020.5 - 0.0
28/04:00pm 21.8 18.9 12.2 54 5.4 ENE 19 26 10 14 1020.7 - 0.0
28/03:45pm 21.7 18.2 12.2 54 5.4 E 22 33 12 18 1020.9 - 0.0
28/03:30pm 22.2 19.6 11.9 52 5.8 ENE 17 28 9 15 1021.0 - 0.0
28/03:15pm 22.2 19.0 11.4 50 6.1 NE 19 30 10 16 1021.1 - 0.0
28/03:00pm 22.1 18.8 11.6 51 5.9 ENE 20 30 11 16 1021.2 - 0.0
28/02:45pm 21.9 19.1 11.3 51 5.9 ENE 17 28 9 15 1021.4 - 0.0
28/02:30pm 21.9 19.2 11.6 52 5.8 E 17 28 9 15 1021.6 - 0.0
28/02:15pm 21.4 18.1 11.0 51 5.8 ENE 19 33 10 18 1021.8 - 0.0
28/02:00pm 22.0 19.2 11.5 51 5.9 ENE 17 26 9 14 1022.0 - 0.0
28/01:45pm 21.6 18.8 11.4 52 5.7 ENE 17 30 9 16 1022.3 - 0.0
28/01:30pm 21.3 18.5 11.2 52 5.6 NE 17 26 9 14 1022.5 - 0.0
28/01:15pm 21.4 19.3 11.2 52 5.7 E 13 22 7 12 1022.7 - 0.0
28/01:00pm 21.1 19.5 11.6 54 5.3 E 11 17 6 9 1022.9 - 0.0
28/12:45pm 20.5 18.7 11.0 54 5.2 E 11 19 6 10 1023.0 - 0.0
28/12:30pm 20.6 18.8 11.0 54 5.3 E 11 20 6 11 1023.2 - 0.0
28/12:15pm 20.4 18.4 11.5 56 5.0 SE 13 24 7 13 1023.3 - 0.0
28/12:00pm 20.2 18.1 11.1 56 5.0 SE 13 20 7 11 1023.5 - 0.0
28/11:45am 19.9 18.1 10.8 55 5.0 ESE 11 19 6 10 1023.6 - 0.0
28/11:30am 19.9 17.7 10.8 55 5.0 E 13 17 7 9 1023.7 - 0.0
28/11:15am 19.9 17.7 10.7 55 5.0 ESE 13 19 7 10 1023.7 - 0.0
28/11:00am 20.3 18.4 10.5 53 5.4 E 11 15 6 8 1023.7 - 0.0
28/10:45am 20.4 18.6 10.8 54 5.3 SSE 11 20 6 11 1023.6 - 0.0
28/10:30am 20.2 17.9 10.5 53 5.3 SE 13 19 7 10 1023.7 - 0.0
28/10:15am 20.5 19.1 10.8 53 5.3 E 9 22 5 12 1023.9 - 0.0
28/10:00am 19.9 18.8 10.6 55 5.1 ESE 7 15 4 8 1024.0 - 0.0
28/09:45am 19.3 18.0 10.1 55 5.0 ESE 7 13 4 7 1024.1 - 0.0
28/09:30am 19.1 17.5 10.1 56 4.8 E 9 15 5 8 1024.1 - 0.0
28/09:15am 19.0 17.4 10.3 57 4.7 E 9 17 5 9 1024.1 - 0.0
28/09:00am 19.1 17.6 10.7 58 4.6 E 9 15 5 8 1024.0 - 0.2
28/08:45am 18.8 17.5 11.3 61 4.1 SE 9 15 5 8 1024.0 - 0.2
28/08:30am 18.5 17.3 11.6 64 3.8 SE 9 15 5 8 1023.8 - 0.2
28/08:15am 18.3 17.8 12.7 70 3.2 SE 7 13 4 7 1023.7 - 0.2
28/08:00am 17.5 17.4 13.2 76 2.4 SSE 6 9 3 5 1023.5 - 0.2
28/07:45am 17.0 17.0 14.1 83 1.7 SSE 7 9 4 5 1023.4 - 0.2
28/07:30am 16.5 16.9 14.7 89 1.0 S 6 9 3 5 1023.3 - 0.2
28/07:15am 15.2 15.0 13.7 91 0.8 SSE 7 11 4 6 1023.1 - 0.2
28/07:00am 14.0 12.7 12.6 91 0.8 SSE 11 13 6 7 1023.0 - 0.2
28/06:45am 13.1 11.1 11.6 91 0.8 SSE 13 15 7 8 1022.8 - 0.2
28/06:30am 12.8 10.7 11.3 91 0.8 SSE 13 15 7 8 1022.8 - 0.2
28/06:15am 12.5 10.4 11.0 90 0.8 SSE 13 15 7 8 1022.7 - 0.2
28/06:00am 12.0 9.7 10.4 90 0.8 SSE 13 15 7 8 1022.6 - 0.2
28/05:45am 11.9 9.9 10.2 89 0.9 SSE 11 15 6 8 1022.6 - 0.2
28/05:30am 12.1 10.2 10.4 89 0.9 SSE 11 13 6 7 1022.5 - 0.2
28/05:15am 12.5 10.7 10.8 89 0.9 SSE 11 13 6 7 1022.4 - 0.2
28/05:00am 12.9 11.2 11.2 89 0.9 SSE 11 15 6 8 1022.4 - 0.2
28/04:45am 12.8 11.8 11.0 89 1.0 SSE 7 11 4 6 1022.4 - 0.2
28/04:30am 12.7 11.7 10.9 89 0.9 SSE 7 9 4 5 1022.4 - 0.2
28/04:15am 12.9 11.9 11.0 88 1.0 SSE 7 11 4 6 1022.4 - 0.2
28/04:00am 13.0 11.7 11.1 88 1.0 SSE 9 13 5 7 1022.5 - 0.2
28/03:45am 13.2 11.9 11.3 88 1.0 SE 9 13 5 7 1022.5 - 0.2
28/03:30am 13.2 11.9 11.1 87 1.1 SE 9 13 5 7 1022.5 - 0.2
28/03:15am 13.3 12.0 11.1 86 1.2 SE 9 13 5 7 1022.5 - 0.2
28/03:00am 13.7 12.4 11.3 85 1.3 SE 9 13 5 7 1022.6 - 0.2
28/02:45am 14.2 12.6 11.6 84 1.4 SE 11 15 6 8 1022.7 - 0.2
28/02:30am 14.5 12.9 11.7 83 1.5 SE 11 15 6 8 1022.9 - 0.2
28/02:15am 14.9 13.4 12.0 83 1.6 SE 11 15 6 8 1023.0 - 0.2
28/02:00am 15.1 13.7 12.2 83 1.6 ESE 11 13 6 7 1023.0 - 0.2
28/01:45am 15.1 13.4 12.4 84 1.5 ESE 13 15 7 8 1023.1 - 0.2
28/01:30am 15.1 13.7 12.3 83 1.5 ESE 11 17 6 9 1023.3 - 0.2
28/01:15am 15.2 13.8 12.3 83 1.6 ESE 11 15 6 8 1023.5 - 0.2
28/01:00am 15.4 13.7 12.6 83 1.5 ESE 13 19 7 10 1023.6 - 0.2
28/12:45am 15.5 13.5 12.7 83 1.6 ESE 15 19 8 10 1023.7 - 0.2
28/12:30am 15.6 14.4 12.8 83 1.6 ESE 11 17 6 9 1023.9 - 0.2
28/12:15am 15.5 14.6 12.7 83 1.6 ESE 9 15 5 8 1024.1 - 0.2
28/12:00am 15.6 14.8 12.9 84 1.5 SE 9 11 5 6 1024.2 - 0.2
 
Date/Time
EDT
Temp
°C
App
Temp
°C
Dew
Point
Rel
Hum
%
Delta-T
°C
Wind Press
QNH
hPa
Press
MSL
hPa
Rain
since 9 am
mm
Dir
 
Spd
km/h
Gust
km/h
Spd
kts
Gust
kts
27/11:45pm 15.4 14.5 12.7 84 1.5 SSE 9 11 5 6 1024.2 - 0.2
27/11:30pm 15.6 14.7 12.7 83 1.6 SSE 9 13 5 7 1024.3 - 0.2
27/11:15pm 15.9 15.1 13.0 83 1.6 SSE 9 13 5 7 1024.4 - 0.2
27/11:00pm 16.1 15.0 13.1 82 1.7 SSE 11 13 6 7 1024.5 - 0.2
27/10:45pm 16.3 15.2 13.2 82 1.7 SE 11 15 6 8 1024.5 - 0.2
27/10:30pm 16.4 15.3 13.2 81 1.8 SSE 11 17 6 9 1024.6 - 0.2
27/10:15pm 16.6 15.9 13.1 80 2.0 SE 9 13 5 7 1024.6 - 0.2
27/10:00pm 16.7 16.0 13.1 79 2.0 SE 9 13 5 7 1024.5 - 0.2
27/09:45pm 16.8 15.3 13.0 78 2.1 SE 13 19 7 10 1024.4 - 0.2
27/09:30pm 16.9 14.6 13.0 78 2.2 ESE 17 22 9 12 1024.2 - 0.2
27/09:15pm 17.0 14.3 13.0 77 2.2 ESE 19 26 10 14 1024.0 - 0.2
27/09:00pm 17.0 13.8 13.1 78 2.2 ESE 22 30 12 16 1023.8 - 0.2
27/08:45pm 16.8 15.7 13.2 79 2.0 ESE 11 26 6 14 1023.6 - 0.2
27/08:30pm 16.7 15.7 13.3 80 1.9 ESE 11 19 6 10 1023.6 - 0.2
27/08:15pm 16.6 16.3 13.3 81 1.9 SE 7 15 4 8 1023.5 - 0.2
27/08:00pm 16.6 15.6 13.3 81 1.9 SE 11 19 6 10 1023.4 - 0.2
27/07:45pm 16.6 15.2 13.3 81 1.9 SE 13 19 7 10 1023.3 - 0.2
27/07:30pm 16.6 15.6 13.4 81 1.8 SE 11 19 6 10 1023.2 - 0.2
27/07:15pm 16.5 14.3 13.4 82 1.8 SE 17 28 9 15 1023.0 - 0.2
27/07:00pm 16.6 14.1 13.4 81 1.8 SE 19 28 10 15 1022.9 - 0.2
27/06:45pm 16.6 14.1 13.4 81 1.8 SE 19 26 10 14 1022.8 - 0.2
27/06:30pm 16.9 14.2 13.4 80 2.0 SE 20 30 11 16 1022.6 - 0.2
27/06:15pm 17.1 13.6 13.4 79 2.1 SE 24 33 13 18 1022.4 - 0.2
27/06:00pm 17.2 14.2 13.6 79 2.0 SE 22 30 12 16 1022.3 - 0.2
27/05:45pm 17.1 13.3 13.5 79 2.0 SE 26 33 14 18 1022.4 - 0.2
27/05:30pm 17.2 14.4 13.3 78 2.2 SE 20 32 11 17 1022.5 - 0.2
27/05:15pm 17.8 15.1 13.5 76 2.4 SE 20 32 11 17 1022.5 - 0.2
27/05:00pm 17.8 14.7 13.3 75 2.6 SE 22 33 12 18 1022.5 - 0.2
27/04:45pm 18.2 15.5 13.5 74 2.7 SE 20 28 11 15 1022.5 - 0.2
27/04:30pm 18.3 15.2 13.4 73 2.8 SE 22 30 12 16 1022.5 - 0.2
27/04:15pm 18.9 16.5 13.8 72 2.9 SE 19 30 10 16 1022.5 - 0.2
27/04:00pm 18.9 16.7 14.3 74 2.7 SSE 19 28 10 15 1022.5 - 0.2
27/03:45pm 18.1 15.5 13.7 75 2.5 SSE 20 32 11 17 1022.6 - 0.2
27/03:30pm 18.9 16.6 14.1 73 2.8 SE 19 28 10 15 1022.6 - 0.2
27/03:15pm 18.6 16.1 14.1 75 2.6 SE 20 30 11 16 1022.6 - 0.2
27/03:00pm 18.3 15.3 13.7 74 2.6 SSE 22 32 12 17 1022.6 - 0.2
27/02:45pm 18.7 16.0 13.6 72 2.9 SE 20 30 11 16 1022.6 - 0.2
27/02:30pm 18.6 16.3 14.0 74 2.7 SSE 19 30 10 16 1022.5 - 0.2
27/02:15pm 18.7 16.4 14.0 74 2.7 SE 19 30 10 16 1022.5 - 0.2
27/02:00pm 18.5 15.6 14.1 75 2.5 SE 22 33 12 18 1022.5 - 0.2
27/01:45pm 18.4 16.2 14.5 78 2.3 SE 19 28 10 15 1022.6 - 0.2
27/01:30pm 18.0 16.7 14.8 81 1.9 SE 15 24 8 13 1022.6 - 0.2
27/01:15pm 17.4 15.0 14.4 82 1.7 SSE 20 30 11 16 1022.7 - 0.2
27/01:00pm 17.0 13.8 14.3 84 1.6 SSE 24 33 13 18 1022.8 - 0.2
27/12:45pm 16.9 14.5 14.5 86 1.4 SSE 20 30 11 16 1022.8 - 0.2
27/12:30pm 16.6 14.4 14.3 86 1.3 SSE 19 28 10 15 1022.9 - 0.2
27/12:15pm 16.5 14.0 14.1 86 1.4 SSE 20 30 11 16 1023.0 - 0.2
27/12:00pm 16.7 14.8 14.2 85 1.4 SSE 17 26 9 14 1022.9 - 0.2
27/11:45am 17.0 15.6 14.5 85 1.4 SE 15 30 8 16 1022.9 - 0.2
27/11:30am 17.0 15.3 14.6 86 1.4 SE 17 24 9 13 1022.8 - 0.2
27/11:15am 17.0 15.4 14.9 87 1.2 SE 17 24 9 13 1022.8 - 0.2
27/11:00am 16.5 15.2 14.7 89 1.0 SE 15 24 8 13 1022.8 - 0.2
27/10:45am 16.3 14.2 14.6 90 1.0 SSE 19 26 10 14 1022.7 - 0.2
27/10:30am 16.1 13.3 14.3 89 1.0 SSE 22 30 12 16 1022.6 - 0.2
27/10:15am 16.4 14.1 14.6 89 1.0 SSE 20 32 11 17 1022.6 - 0.2
27/10:00am 16.6 14.9 14.8 89 1.0 SE 17 26 9 14 1022.4 - 0.2
27/09:45am 16.5 14.4 14.6 88 1.1 SSE 19 26 10 14 1022.3 - 0.2
27/09:30am 16.7 15.0 14.7 88 1.2 SSE 17 28 9 15 1022.3 - 0.2
27/09:15am 17.1 15.5 15.1 88 1.2 SSE 17 24 9 13 1022.3 - 0.0
27/09:00am 16.8 15.2 15.1 90 1.0 SSE 17 24 9 13 1022.3 - 9.5
27/08:45am 16.5 14.9 15.0 91 0.9 SE 17 30 9 16 1022.1 - 9.5
27/08:30am 16.1 14.0 14.6 91 0.9 SSE 19 30 10 16 1021.9 - 9.5
27/08:15am 15.9 14.5 14.4 91 0.9 SE 15 26 8 14 1021.8 - 9.5
27/08:00am 15.8 13.9 14.3 91 0.9 SSE 17 26 9 14 1021.6 - 9.5
27/07:45am 15.9 13.5 14.4 91 0.9 SSE 20 30 11 16 1021.4 - 9.5
27/07:30am 15.9 13.1 14.4 91 0.9 SSE 22 37 12 20 1021.1 - 9.5
27/07:15am 15.8 13.0 14.3 91 0.9 SSE 22 39 12 21 1021.0 - 9.5
27/07:00am 15.6 13.1 14.1 91 0.9 SSE 20 33 11 18 1020.8 - 9.5
27/06:45am 15.6 12.7 14.1 91 0.9 SSE 22 33 12 18 1020.7 - 9.5
27/06:30am 15.7 12.8 14.1 90 0.9 SSE 22 33 12 18 1020.5 - 9.5
27/06:15am 16.0 12.9 14.4 90 0.9 SSE 24 37 13 20 1020.4 - 9.2
27/06:00am 16.4 14.7 14.8 90 0.9 SSE 17 26 9 14 1020.1 - 7.2
27/05:45am 16.6 14.4 14.9 90 1.0 SE 20 33 11 18 1019.8 - 4.0
27/05:30am 17.1 14.7 15.4 90 1.0 SE 22 33 12 18 1019.5 - 2.3
27/05:15am 17.1 14.4 15.5 90 0.9 ESE 24 33 13 18 1019.2 - 1.4
27/05:00am 17.1 14.7 15.4 90 1.0 ESE 22 30 12 16 1019.0 - 1.4
27/04:45am 17.2 14.8 15.5 90 1.0 ESE 22 37 12 20 1018.9 - 1.4
27/04:30am 17.3 15.9 15.5 89 1.1 SE 17 26 9 14 1018.7 - 1.4
27/04:15am 17.6 16.3 15.7 89 1.1 SE 17 28 9 15 1018.7 - 1.3
27/04:00am 17.9 17.4 16.0 89 1.1 SSE 13 19 7 10 1018.6 - 0.4
27/03:45am 17.8 17.3 15.9 89 1.1 S 13 17 7 9 1018.4 - 0.0
27/03:30am 17.7 17.9 15.8 89 1.1 S 9 13 5 7 1018.4 - 0.0
27/03:15am 17.7 17.5 15.7 88 1.2 SSE 11 13 6 7 1018.4 - 0.0
27/03:00am 17.6 17.4 15.6 88 1.2 SSE 11 15 6 8 1018.5 - 0.0
27/02:45am 17.7 17.5 15.6 87 1.2 SSE 11 13 6 7 1018.5 - 0.0
27/02:30am 17.8 17.9 15.6 87 1.3 SSE 9 11 5 6 1018.6 - 0.0
27/02:15am 17.8 17.9 15.6 87 1.3 SSE 9 11 5 6 1018.8 - 0.0
27/02:00am 17.9 18.0 15.6 86 1.4 SSE 9 11 5 6 1018.9 - 0.0
27/01:45am 18.0 18.1 15.6 86 1.4 SE 9 13 5 7 1019.0 - 0.0
27/01:30am 18.0 18.1 15.6 86 1.4 SSE 9 11 5 6 1019.2 - 0.0
27/01:15am 17.9 18.0 15.4 85 1.5 SSE 9 11 5 6 1019.3 - 0.0
27/01:00am 18.2 18.0 15.7 85 1.5 SSE 11 13 6 7 1019.4 - 0.0
27/12:45am 18.2 18.4 15.7 85 1.5 SSE 9 13 5 7 1019.4 - 0.0
27/12:30am 18.1 18.2 15.6 85 1.5 SE 9 11 5 6 1019.5 - 0.0
27/12:15am 18.2 18.3 15.6 85 1.5 SE 9 13 5 7 1019.4 - 0.0
27/12:00am 18.2 18.3 15.6 85 1.5 SE 9 9 5 5 1019.5 - 0.0
 
Date/Time
EDT
Temp
°C
App
Temp
°C
Dew
Point
Rel
Hum
%
Delta-T
°C
Wind Press
QNH
hPa
Press
MSL
hPa
Rain
since 9 am
mm
Dir
 
Spd
km/h
Gust
km/h
Spd
kts
Gust
kts
26/11:45pm 18.3 18.4 15.6 84 1.6 SSE 9 11 5 6 1019.5 - 0.0
26/11:30pm 18.4 18.5 15.5 83 1.7 SSE 9 11 5 6 1019.4 - 0.0
26/11:15pm 18.5 18.6 15.4 82 1.8 SSE 9 11 5 6 1019.3 - 0.0
26/11:00pm 18.9 19.4 15.6 81 2.0 E 7 11 4 6 1019.2 - 0.0
26/10:45pm 19.1 19.3 15.7 80 2.0 E 9 15 5 8 1019.1 - 0.0
26/10:30pm 19.3 18.7 15.7 79 2.1 ENE 13 22 7 12 1019.0 - 0.0
26/10:15pm 19.5 18.2 15.8 79 2.2 E 17 24 9 13 1019.0 - 0.0
26/10:00pm 19.6 18.7 15.9 79 2.2 E 15 19 8 10 1019.2 - 0.0
26/09:45pm 19.6 19.1 15.8 79 2.3 E 13 17 7 9 1019.1 - 0.0
26/09:30pm 19.7 19.5 15.8 78 2.3 E 11 19 6 10 1018.7 - 0.0
26/09:15pm 19.8 19.3 15.9 78 2.3 ENE 13 20 7 11 1018.5 - 0.0
26/09:00pm 19.8 19.3 15.9 78 2.3 ENE 13 22 7 12 1018.3 - 0.0
26/08:45pm 19.7 18.7 15.7 78 2.4 ENE 15 24 8 13 1018.1 - 0.0
26/08:30pm 19.7 18.7 15.7 78 2.4 ENE 15 24 8 13 1018.1 - 0.0
26/08:15pm 19.8 18.1 15.7 77 2.4 ENE 19 30 10 16 1017.8 - 0.0
26/08:00pm 20.0 18.1 15.7 76 2.6 ENE 20 30 11 16 1017.6 - 0.0
26/07:45pm 20.3 18.0 15.7 75 2.8 ENE 22 28 12 15 1017.3 - 0.0
26/07:30pm 20.6 18.7 15.7 73 2.9 ENE 20 30 11 16 1017.1 - 0.0
26/07:15pm 20.9 19.0 15.8 72 3.1 ENE 20 33 11 18 1016.8 - 0.0
26/07:00pm 21.1 19.5 15.9 72 3.1 ENE 19 30 10 16 1016.6 - 0.0
26/06:45pm 21.3 19.4 15.8 71 3.3 ENE 20 30 11 16 1016.3 - 0.0
26/06:30pm 21.7 19.8 15.7 68 3.6 ENE 20 30 11 16 1015.9 - 0.0
26/06:15pm 22.2 20.4 15.9 67 3.8 NE 20 28 11 15 1015.7 - 0.0
26/06:00pm 22.1 20.2 15.8 67 3.8 NE 20 30 11 16 1015.6 - 0.0
26/05:45pm 22.1 20.4 15.8 67 3.8 NE 19 28 10 15 1015.6 - 0.0
26/05:30pm 22.2 19.6 15.8 67 3.9 ENE 24 33 13 18 1015.6 - 0.0
26/05:15pm 22.4 19.7 15.7 66 4.0 NE 24 33 13 18 1015.5 - 0.0
26/05:00pm 22.9 19.9 15.8 64 4.3 ENE 26 37 14 20 1015.4 - 0.0
26/04:45pm 23.2 21.0 16.0 64 4.4 NE 22 39 12 21 1015.5 - 0.0
26/04:30pm 23.2 22.1 16.4 65 4.2 NE 17 33 9 18 1015.6 - 0.0
26/04:15pm 22.8 21.0 16.0 65 4.1 NE 20 32 11 17 1015.7 - 0.0
26/04:00pm 22.6 19.9 15.6 64 4.2 NE 24 39 13 21 1015.8 - 0.0
26/03:45pm 22.9 20.7 15.9 64 4.2 NE 22 35 12 19 1016.0 - 0.0
26/03:30pm 23.0 20.4 16.0 64 4.3 NE 24 33 13 18 1016.0 - 0.0
26/03:15pm 22.6 19.9 15.6 64 4.2 NE 24 33 13 18 1016.3 - 0.0
26/03:00pm 22.6 20.3 15.8 65 4.1 NE 22 33 12 18 1016.5 - 0.0
26/02:45pm 22.1 20.2 15.2 65 4.1 NE 19 28 10 15 1016.7 - 0.0
26/02:30pm 22.6 21.5 15.3 63 4.4 NNE 15 22 8 12 1016.8 - 0.0
26/02:15pm 22.0 20.5 15.3 65 4.0 NNE 17 24 9 13 1017.1 - 0.0
26/02:00pm 21.3 20.0 14.8 66 3.8 NE 15 26 8 14 1017.3 - 0.0
26/01:45pm 21.7 20.4 14.8 65 4.1 NNE 15 30 8 16 1017.2 - 0.0
26/01:30pm 21.8 20.5 14.8 64 4.2 NNE 15 26 8 14 1017.4 - 0.0
26/01:15pm 21.6 19.9 14.7 65 4.1 NE 17 28 9 15 1017.5 - 0.0
26/01:00pm 21.3 19.9 14.6 65 4.0 NNE 15 28 8 15 1017.7 - 0.0
26/12:45pm 21.3 19.1 14.5 65 4.0 NNE 19 26 10 14 1018.0 - 0.0
26/12:30pm 21.0 18.8 14.4 66 3.9 N 19 26 10 14 1018.2 - 0.0
26/12:15pm 20.7 19.2 14.3 66 3.7 N 15 22 8 12 1018.5 - 0.0
26/12:00pm 20.4 18.8 13.8 66 3.8 - 15 22 8 12 1018.7 - 0.0
26/11:45am 20.5 18.8 13.7 65 3.9 N 15 22 8 12 1018.9 - 0.0
26/11:30am 20.7 19.4 13.6 64 4.1 N 13 20 7 11 1019.0 - 0.0
26/11:15am 20.6 19.6 13.4 63 4.1 N 11 22 6 12 1019.1 - 0.0
26/11:00am 20.7 18.8 13.1 61 4.4 - 15 24 8 13 1019.0 - 0.0
26/10:45am 20.9 19.3 12.7 59 4.7 N 13 22 7 12 1019.1 - 0.0
26/10:30am 21.2 20.1 13.0 59 4.7 N 11 20 6 11 1019.1 - 0.0
26/10:15am 20.8 18.7 12.5 59 4.7 N 15 22 8 12 1019.2 - 0.0
26/10:00am 20.9 19.3 12.8 60 4.6 NNW 13 19 7 10 1019.3 - 0.0
26/09:45am 20.5 18.9 12.8 61 4.4 NNW 13 19 7 10 1019.5 - 0.0
26/09:30am 20.3 18.8 13.2 63 4.1 NNW 13 20 7 11 1019.6 - 0.0
26/09:15am 20.2 19.2 13.3 64 4.0 N 11 20 6 11 1019.7 - 0.0
26/09:00am 20.1 19.5 13.5 66 3.8 N 9 19 5 10 1019.8 - 0.0
26/08:45am 19.9 19.3 13.5 66 3.7 N 9 19 5 10 1019.8 - 0.0
26/08:30am 19.6 17.8 13.4 67 3.6 NNE 15 22 8 12 1019.8 - 0.0
26/08:15am 19.5 18.1 13.5 68 3.4 N 13 19 7 10 1019.7 - 0.0

Other Formats:

Comma delimited format used in spreadsheet applications
http://www.bom.gov.au/fwo/IDN60801/IDN60801.95757.axf

JavaScript Object Notation format (JSON) in row-major order
http://www.bom.gov.au/fwo/IDN60801/IDN60801.95757.json